createdAt,value
2022-07-26T00:04:43.581Z,53.55
2022-07-26T00:09:48.223Z,53.64
2022-07-26T00:14:50.737Z,53.94
2022-07-26T00:19:52.243Z,54.51
2022-07-26T00:24:53.788Z,54.61
2022-07-26T00:29:55.280Z,54.55
2022-07-26T00:34:56.746Z,54.76
2022-07-26T00:39:58.381Z,55.11
2022-07-26T00:45:00.508Z,55.63
2022-07-26T00:50:02.429Z,55.44
2022-07-26T00:55:06.558Z,55.96
2022-07-26T01:00:16.965Z,56.05
2022-07-26T01:05:18.376Z,56.91
2022-07-26T01:10:20.491Z,56.23
2022-07-26T01:15:23.317Z,57.45
2022-07-26T01:20:24.806Z,57.88
2022-07-26T01:25:43.311Z,59.52
2022-07-26T01:30:45.443Z,60.02
2022-07-26T01:35:47.285Z,61.05
2022-07-26T01:40:48.754Z,61.38
2022-07-26T01:45:50.247Z,62.57
2022-07-26T01:50:51.733Z,63.04
2022-07-26T01:55:53.442Z,64.71
2022-07-26T02:00:54.927Z,66.03
2022-07-26T02:05:56.472Z,66.67
2022-07-26T02:11:00.555Z,67.14
2022-07-26T02:16:08.212Z,67.61
2022-07-26T02:21:09.904Z,66.59
2022-07-26T02:26:11.479Z,66.83
2022-07-26T02:31:15.529Z,66.23
2022-07-26T02:36:17.297Z,66.46
2022-07-26T02:41:18.854Z,67.02
2022-07-26T02:46:20.349Z,66.07
2022-07-26T02:51:21.831Z,66.56
2022-07-26T02:56:23.357Z,66.50
2022-07-26T03:01:25.121Z,66.48
2022-07-26T03:06:26.589Z,66.55
2022-07-26T03:11:28.144Z,66.50
2022-07-26T03:16:30.065Z,66.45
2022-07-26T03:21:31.623Z,66.93
2022-07-26T03:26:33.070Z,66.77
2022-07-26T03:31:34.636Z,67.93
2022-07-26T03:36:36.184Z,68.65
2022-07-26T03:41:37.629Z,69.88
2022-07-26T03:46:39.119Z,70.37
2022-07-26T03:51:40.612Z,70.89
2022-07-26T03:56:42.154Z,71.13
2022-07-26T04:01:44.160Z,71.16
2022-07-26T04:06:47.424Z,71.46
2022-07-26T04:11:48.926Z,71.60
2022-07-26T04:16:50.408Z,71.34
2022-07-26T04:21:51.886Z,71.95
2022-07-26T04:26:53.376Z,71.56
2022-07-26T04:31:54.816Z,67.96
2022-07-26T04:36:56.256Z,64.30
2022-07-26T04:41:57.685Z,60.84
2022-07-26T04:46:59.174Z,57.80
2022-07-26T04:52:00.692Z,60.18
2022-07-26T04:57:02.243Z,59.64
2022-07-26T05:02:03.797Z,55.27
2022-07-26T05:07:05.388Z,55.27
2022-07-26T05:12:07.319Z,53.17
2022-07-26T05:17:10.577Z,51.13
2022-07-26T05:22:13.741Z,54.87
2022-07-26T05:27:15.212Z,56.69
2022-07-26T05:32:16.819Z,57.29
2022-07-26T05:37:18.346Z,58.24
2022-07-26T05:42:19.793Z,55.63
2022-07-26T05:47:21.297Z,56.14
2022-07-26T05:52:23.272Z,54.56
2022-07-26T05:57:25.108Z,52.61
2022-07-26T06:02:26.640Z,46.01
2022-07-26T06:07:28.153Z,45.42
2022-07-26T06:12:29.631Z,47.53
2022-07-26T06:17:31.250Z,49.85
2022-07-26T06:22:32.749Z,48.85
2022-07-26T06:27:34.195Z,49.18
2022-07-26T06:32:35.778Z,42.34
2022-07-26T06:37:38.763Z,38.26
2022-07-26T06:42:40.254Z,34.07
2022-07-26T06:47:41.973Z,31.12
2022-07-26T06:52:43.522Z,29.43
2022-07-26T06:57:50.055Z,28.92
2022-07-26T07:02:52.124Z,28.33
2022-07-26T07:07:53.629Z,26.97
2022-07-26T07:12:55.769Z,27.19
2022-07-26T07:17:57.326Z,25.28
2022-07-26T07:22:58.779Z,26.89
2022-07-26T07:28:00.271Z,27.23
2022-07-26T07:33:01.761Z,27.72
2022-07-26T07:38:05.100Z,29.73
2022-07-26T07:43:07.409Z,27.61
2022-07-26T07:48:08.881Z,27.82
2022-07-26T07:53:11.582Z,25.93
2022-07-26T07:58:13.398Z,25.14
2022-07-26T08:03:18.007Z,24.35
2022-07-26T08:08:22.164Z,24.40
2022-07-26T08:13:24.555Z,24.47
2022-07-26T08:18:26.162Z,23.58
2022-07-26T08:23:27.654Z,21.85
2022-07-26T08:33:51.103Z,24.80
2022-07-26T08:38:52.707Z,22.85
2022-07-26T08:43:54.294Z,23.57
2022-07-26T08:48:56.909Z,22.80
2022-07-26T08:54:05.195Z,23.88
2022-07-26T08:59:20.614Z,23.64
2022-07-26T09:04:32.041Z,22.35
2022-07-26T09:09:37.276Z,23.10
2022-07-26T09:14:39.804Z,23.35
2022-07-26T09:19:41.441Z,23.41
2022-07-26T09:24:47.506Z,24.71
2022-07-26T09:29:51.763Z,27.14
2022-07-26T09:34:59.211Z,26.14
2022-07-26T09:40:02.668Z,26.38
2022-07-26T09:45:16.538Z,26.76
2022-07-26T09:50:22.681Z,28.45
2022-07-26T09:55:24.443Z,30.80
2022-07-26T10:00:27.896Z,28.95
2022-07-26T10:05:29.514Z,28.70
2022-07-26T10:10:35.037Z,29.06
2022-07-26T10:15:40.432Z,28.57
2022-07-26T10:20:51.985Z,27.38
2022-07-26T10:25:53.697Z,30.10
2022-07-26T10:31:21.086Z,29.73
2022-07-26T10:36:32.203Z,30.01
2022-07-26T10:41:35.025Z,28.79
2022-07-26T10:46:36.531Z,30.17
2022-07-26T10:51:40.990Z,31.65
2022-07-26T10:56:42.513Z,32.21
2022-07-26T11:01:45.436Z,32.50
2022-07-26T11:06:47.047Z,32.29
2022-07-26T11:11:48.757Z,32.14
2022-07-26T11:16:50.643Z,31.57
2022-07-26T11:21:58.975Z,31.64
2022-07-26T11:27:04.273Z,30.79
2022-07-26T11:32:14.793Z,30.61
2022-07-26T11:37:18.517Z,31.06
2022-07-26T11:42:21.551Z,30.61
2022-07-26T11:47:25.666Z,30.16
2022-07-26T11:52:31.732Z,30.29
2022-07-26T11:57:33.607Z,30.23
2022-07-26T12:02:35.136Z,31.30
2022-07-26T12:07:36.575Z,31.34
2022-07-26T12:12:39.486Z,31.48
2022-07-26T12:17:58.223Z,31.52
2022-07-26T12:23:05.010Z,31.88
2022-07-26T12:28:07.652Z,30.65
2022-07-26T12:33:09.155Z,31.80
2022-07-26T12:38:10.637Z,31.29
2022-07-26T12:43:12.305Z,31.54
2022-07-26T12:48:14.136Z,31.59
2022-07-26T12:53:15.606Z,31.50
2022-07-26T12:58:17.073Z,31.16
2022-07-26T13:03:18.645Z,31.67
2022-07-26T13:08:20.117Z,31.37
2022-07-26T13:13:21.725Z,31.35
2022-07-26T13:18:23.205Z,30.99
2022-07-26T13:23:26.753Z,31.40
2022-07-26T13:28:28.531Z,32.32
2022-07-26T13:33:30.026Z,32.56
2022-07-26T13:38:33.629Z,32.39
2022-07-26T13:43:35.855Z,32.97
2022-07-26T13:48:37.403Z,33.17
2022-07-26T13:53:52.075Z,33.25
2022-07-26T13:58:56.935Z,33.38
2022-07-26T14:03:58.453Z,33.76
2022-07-26T14:09:00.375Z,33.60
2022-07-26T14:14:02.069Z,33.96
2022-07-26T14:19:03.948Z,33.93
2022-07-26T14:24:05.798Z,33.64
2022-07-26T14:29:07.404Z,34.00
2022-07-26T14:34:09.120Z,33.51
2022-07-26T14:39:10.751Z,34.08
2022-07-26T14:44:12.506Z,34.21
2022-07-26T14:49:14.374Z,34.37
2022-07-26T14:54:16.840Z,34.68
2022-07-26T14:59:18.382Z,34.85
2022-07-26T15:04:20.017Z,34.46
2022-07-26T15:09:21.551Z,33.96
2022-07-26T15:14:23.015Z,33.96
2022-07-26T15:19:25.806Z,34.27
2022-07-26T15:24:28.711Z,34.18
2022-07-26T15:29:30.199Z,33.84
2022-07-26T15:34:32.664Z,33.69
2022-07-26T15:39:34.607Z,33.96
2022-07-26T15:44:38.446Z,33.58
2022-07-26T15:49:40.500Z,34.25
2022-07-26T15:54:42.489Z,34.09
2022-07-26T15:59:44.149Z,34.10
2022-07-26T16:04:45.583Z,33.90
2022-07-26T16:09:48.651Z,33.86
2022-07-26T16:14:50.144Z,34.47
2022-07-26T16:19:52.239Z,34.71
2022-07-26T16:24:54.145Z,34.97
2022-07-26T16:29:55.649Z,35.85
2022-07-26T16:34:57.119Z,34.88
2022-07-26T16:39:58.592Z,35.85
2022-07-26T16:45:00.228Z,35.53
2022-07-26T16:50:02.261Z,35.59
2022-07-26T16:55:04.440Z,35.45
2022-07-26T17:00:08.664Z,35.47
2022-07-26T17:05:10.723Z,35.67
2022-07-26T17:10:12.289Z,35.24
2022-07-26T17:15:13.839Z,35.34
2022-07-26T17:20:15.359Z,35.05
2022-07-26T17:25:16.905Z,35.69
2022-07-26T17:30:18.457Z,35.66
2022-07-26T17:35:19.998Z,35.77
2022-07-26T17:40:22.607Z,36.60
2022-07-26T17:45:27.685Z,36.73
2022-07-26T17:50:38.188Z,37.24
2022-07-26T17:55:40.059Z,37.32
2022-07-26T18:00:41.651Z,37.74
2022-07-26T18:05:43.383Z,37.98
2022-07-26T18:10:50.519Z,38.40
2022-07-26T18:15:53.356Z,38.44
2022-07-26T18:20:54.886Z,38.36
2022-07-26T18:25:58.013Z,38.41
2022-07-26T18:30:59.523Z,38.92
2022-07-26T18:36:01.581Z,38.92
2022-07-26T18:41:03.625Z,39.38
2022-07-26T18:46:06.450Z,39.94
2022-07-26T18:51:08.054Z,40.02
2022-07-26T18:56:09.551Z,40.39
2022-07-26T19:01:11.138Z,40.80
2022-07-26T19:06:13.122Z,41.17
2022-07-26T19:11:14.658Z,42.02
2022-07-26T19:16:16.253Z,42.28
2022-07-26T19:21:17.760Z,42.51
2022-07-26T19:26:19.394Z,42.49
2022-07-26T19:31:21.890Z,42.73
2022-07-26T19:36:25.831Z,43.72
2022-07-26T19:41:27.937Z,43.61
2022-07-26T19:46:29.517Z,43.52
2022-07-26T19:51:31.129Z,43.66
2022-07-26T19:56:32.597Z,44.27
2022-07-26T20:01:34.094Z,44.25
2022-07-26T20:06:35.652Z,44.93
2022-07-26T20:11:37.167Z,45.23
2022-07-26T20:16:38.690Z,45.47
2022-07-26T20:21:40.717Z,46.38
2022-07-26T20:26:42.794Z,47.21
2022-07-26T20:31:44.708Z,47.87
2022-07-26T20:36:46.506Z,47.90
2022-07-26T20:41:48.225Z,47.65
2022-07-26T20:46:49.891Z,48.08
2022-07-26T20:51:51.394Z,47.91
2022-07-26T20:56:52.837Z,48.26
2022-07-26T21:01:54.379Z,49.30
2022-07-26T21:06:55.942Z,49.34
2022-07-26T21:11:57.594Z,50.20
2022-07-26T21:16:59.146Z,50.38
2022-07-26T21:22:00.878Z,50.88
2022-07-26T21:27:04.125Z,51.38
2022-07-26T21:32:05.729Z,51.71
2022-07-26T21:37:07.218Z,51.05
2022-07-26T21:42:08.749Z,51.23
2022-07-26T21:47:10.270Z,51.35
2022-07-26T21:52:11.710Z,51.70
2022-07-26T21:57:13.176Z,51.80
2022-07-26T22:02:14.685Z,51.22
2022-07-26T22:07:21.386Z,51.58
2022-07-26T22:12:22.833Z,52.11
2022-07-26T22:17:24.279Z,52.44
2022-07-26T22:22:25.750Z,52.23
2022-07-26T22:27:27.440Z,52.36
2022-07-26T22:32:28.906Z,53.25
2022-07-26T22:37:30.367Z,53.81
2022-07-26T22:42:32.058Z,53.74
2022-07-26T22:47:33.531Z,54.08
2022-07-26T22:52:35.279Z,53.83
2022-07-26T22:57:36.797Z,54.55
2022-07-26T23:02:38.453Z,54.71
2022-07-26T23:07:40.156Z,54.85
2022-07-26T23:12:42.363Z,55.17
2022-07-26T23:17:43.950Z,55.26
2022-07-26T23:22:45.468Z,55.09
2022-07-26T23:27:48.523Z,55.61
2022-07-26T23:32:49.972Z,57.00
2022-07-26T23:37:51.458Z,57.03
2022-07-26T23:42:53.106Z,57.22
2022-07-26T23:47:54.559Z,56.58
2022-07-26T23:52:55.975Z,57.08
2022-07-26T23:57:57.529Z,56.12
